NCAR-RAP Real-Time Weather Data

Output produced by METARs form (27 May 2017  08:19 UTC)
found at http://weather.rap.ucar.edu/surface/
 
Conditions at: KPGD observed 27 May 2017  07:53 UTC
Temperature: 17.8°C (64°F)
Dewpoint: 17.2°C (63°F) [RH = 96%]
Pressure (altimeter): 30.06 inches Hg (1018.0 mb)
[Sea-level pressure: 1018.0 mb]
Winds: from the NE (40 degrees) at 3 MPH (3 knots; 1.6 m/s)
Visibility: 10 or more miles (16+ km)
Ceiling: at least 12,000 feet AGL
Clouds: sky clear below 12,000 feet AGL
Present Weather: no significant weather observed at this time
KPGD 270753Z 04003KT 10SM CLR 18/17 A3006 RMK AO2 SLP180 T01780172

Conditions at: KPGD observed 27 May 2017  06:53 UTC
Temperature: 18.3°C (65°F)
Dewpoint: 17.2°C (63°F) [RH = 93%]
Pressure (altimeter): 30.06 inches Hg (1018.0 mb)
[Sea-level pressure: 1018.1 mb]
Winds: from the NE (50 degrees) at 8 MPH (7 knots; 3.6 m/s)
Visibility: 10 or more miles (16+ km)
Ceiling: at least 12,000 feet AGL
Clouds: sky clear below 12,000 feet AGL
Present Weather: no significant weather observed at this time
KPGD 270653Z 05007KT 10SM CLR 18/17 A3006 RMK AO2 SLP181 T01830172

Conditions at: KPGD observed 27 May 2017  05:53 UTC
Temperature: 20.0°C (68°F)
Dewpoint: 17.8°C (64°F) [RH = 87%]
Pressure (altimeter): 30.06 inches Hg (1018.0 mb)
[Sea-level pressure: 1017.9 mb]
Winds: calm
Visibility: 10 or more miles (16+ km)
Ceiling: at least 12,000 feet AGL
Clouds: sky clear below 12,000 feet AGL
Present Weather: no significant weather observed at this time
KPGD 270553Z 00000KT 10SM CLR 20/18 A3006 RMK AO2 SLP179 T02000178 10289 20200 58007

Conditions at: KPGD observed 27 May 2017  04:53 UTC
Temperature: 22.2°C (72°F)
Dewpoint: 18.9°C (66°F) [RH = 82%]
Pressure (altimeter): 30.08 inches Hg (1018.7 mb)
[Sea-level pressure: 1018.5 mb]
Winds: from the NW (320 degrees) at 5 MPH (4 knots; 2.1 m/s)
Visibility: 10 or more miles (16+ km)
Ceiling: at least 12,000 feet AGL
Clouds: sky clear below 12,000 feet AGL
Present Weather: no significant weather observed at this time
KPGD 270453Z 32004KT 10SM CLR 22/19 A3008 RMK AO2 SLP185 T02220189 403280178

Conditions at: KPGD observed 27 May 2017  03:53 UTC
Temperature: 22.8°C (73°F)
Dewpoint: 18.9°C (66°F) [RH = 79%]
Pressure (altimeter): 30.08 inches Hg (1018.7 mb)
[Sea-level pressure: 1018.7 mb]
Winds: from the NNW (330 degrees) at 6 MPH (5 knots; 2.6 m/s)
Visibility: 10 or more miles (16+ km)
Ceiling: at least 12,000 feet AGL
Clouds: sky clear below 12,000 feet AGL
Present Weather: no significant weather observed at this time
KPGD 270353Z 33005KT 10SM CLR 23/19 A3008 RMK AO2 SLP187 T02280189

Conditions at: KPGD observed 27 May 2017  02:53 UTC
Temperature: 24.4°C (76°F)
Dewpoint: 19.4°C (67°F) [RH = 74%]
Pressure (altimeter): 30.08 inches Hg (1018.7 mb)
[Sea-level pressure: 1018.7 mb]
Winds: from the NNW (330 degrees) at 5 MPH (4 knots; 2.1 m/s)
Visibility: 10 or more miles (16+ km)
Ceiling: at least 12,000 feet AGL
Clouds: sky clear below 12,000 feet AGL
Present Weather: no significant weather observed at this time
KPGD 270253Z 33004KT 10SM CLR 24/19 A3008 RMK AO2 SLP187 T02440194 53014

Conditions at: KPGD observed 27 May 2017  01:53 UTC
Temperature: 26.1°C (79°F)
Dewpoint: 20.0°C (68°F) [RH = 69%]
Pressure (altimeter): 30.07 inches Hg (1018.4 mb)
[Sea-level pressure: 1018.2 mb]
Winds: from the WNW (300 degrees) at 8 MPH (7 knots; 3.6 m/s)
Visibility: 10 or more miles (16+ km)
Ceiling: at least 12,000 feet AGL
Clouds: sky clear below 12,000 feet AGL
Present Weather: no significant weather observed at this time
KPGD 270153Z 30007KT 10SM CLR 26/20 A3007 RMK AO2 SLP182 T02610200

Conditions at: KPGD observed 27 May 2017  00:53 UTC
Temperature: 27.2°C (81°F)
Dewpoint: 20.0°C (68°F) [RH = 65%]
Pressure (altimeter): 30.05 inches Hg (1017.7 mb)
[Sea-level pressure: 1017.6 mb]
Winds: from the WNW (290 degrees) at 8 MPH (7 knots; 3.6 m/s)
Visibility: 10 or more miles (16+ km)
Ceiling: at least 12,000 feet AGL
Clouds: sky clear below 12,000 feet AGL
Present Weather: no significant weather observed at this time
KPGD 270053Z 29007KT 10SM CLR 27/20 A3005 RMK AO2 SLP176 T02720200

Conditions at: KPGD observed 26 May 2017  23:53 UTC
Temperature: 28.9°C (84°F)
Dewpoint: 20.0°C (68°F) [RH = 59%]
Pressure (altimeter): 30.04 inches Hg (1017.4 mb)
[Sea-level pressure: 1017.2 mb]
Winds: from the W (280 degrees) at 10 MPH (9 knots; 4.7 m/s)
Visibility: 10 or more miles (16+ km)
Ceiling: at least 12,000 feet AGL
Clouds: sky clear below 12,000 feet AGL
Present Weather: no significant weather observed at this time
KPGD 262353Z 28009KT 10SM CLR 29/20 A3004 RMK AO2 SLP172 T02890200 10328 20289 53003

Conditions at: KPGD observed 26 May 2017  22:53 UTC
Temperature: 30.6°C (87°F)
Dewpoint: 20.6°C (69°F) [RH = 55%]
Pressure (altimeter): 30.03 inches Hg (1017.0 mb)
[Sea-level pressure: 1017.0 mb]
Winds: from the WNW (290 degrees) at 9 MPH (8 knots; 4.2 m/s)
Visibility: 10 or more miles (16+ km)
Ceiling: at least 12,000 feet AGL
Clouds: sky clear below 12,000 feet AGL
Present Weather: no significant weather observed at this time
KPGD 262253Z 29008KT 10SM CLR 31/21 A3003 RMK AO2 SLP170 T03060206

Conditions at: KPGD observed 26 May 2017  21:53 UTC
Temperature: 31.7°C (89°F)
Dewpoint: 20.0°C (68°F) [RH = 50%]
Pressure (altimeter): 30.03 inches Hg (1017.0 mb)
[Sea-level pressure: 1016.8 mb]
Winds: from the W (260 degrees) at 10 MPH (9 knots; 4.7 m/s)
Visibility: 10 or more miles (16+ km)
Ceiling: at least 12,000 feet AGL
Clouds: sky clear below 12,000 feet AGL
Present Weather: no significant weather observed at this time
KPGD 262153Z 26009KT 10SM CLR 32/20 A3003 RMK AO2 SLP168 T03170200

Conditions at: KPGD observed 26 May 2017  20:53 UTC
Temperature: 31.1°C (88°F)
Dewpoint: 20.6°C (69°F) [RH = 54%]
Pressure (altimeter): 30.03 inches Hg (1017.0 mb)
[Sea-level pressure: 1016.9 mb]
Winds: from the WSW (240 degrees) at 12 MPH (10 knots; 5.2 m/s)
Visibility: 10 or more miles (16+ km)
Ceiling: at least 12,000 feet AGL
Clouds: sky clear below 12,000 feet AGL
Present Weather: no significant weather observed at this time
KPGD 262053Z 24010KT 10SM CLR 31/21 A3003 RMK AO2 SLP169 T03110206 56010

Conditions at: KPGD observed 26 May 2017  19:53 UTC
Temperature: 32.2°C (90°F)
Dewpoint: 19.4°C (67°F) [RH = 47%]
Pressure (altimeter): 30.03 inches Hg (1017.0 mb)
[Sea-level pressure: 1017.0 mb]
Winds: from the W (260 degrees) at 12 MPH (10 knots; 5.2 m/s)
Visibility: 10 or more miles (16+ km)
Ceiling: at least 12,000 feet AGL
Clouds: sky clear below 12,000 feet AGL
Present Weather: no significant weather observed at this time
KPGD 261953Z 26010KT 10SM CLR 32/19 A3003 RMK AO2 SLP170 T03220194

Conditions at: KPGD observed 26 May 2017  18:53 UTC
Temperature: 31.7°C (89°F)
Dewpoint: 19.4°C (67°F) [RH = 48%]
Pressure (altimeter): 30.05 inches Hg (1017.7 mb)
[Sea-level pressure: 1017.6 mb]
Winds: from the NW (310 degrees) at 10 MPH (9 knots; 4.7 m/s)
gusting to 16 MPH (14 knots; 7.3 m/s)
Visibility: 10 or more miles (16+ km)
Ceiling: at least 12,000 feet AGL
Clouds: sky clear below 12,000 feet AGL
Present Weather: no significant weather observed at this time
KPGD 261853Z 31009G14KT 10SM CLR 32/19 A3005 RMK AO2 SLP176 T03170194

Conditions at: KPGD observed 26 May 2017  17:53 UTC
Temperature: 31.1°C (88°F)
Dewpoint: 18.9°C (66°F) [RH = 48%]
Pressure (altimeter): 30.06 inches Hg (1018.0 mb)
[Sea-level pressure: 1017.9 mb]
Winds: from the WNW (300 degrees) at 9 MPH (8 knots; 4.2 m/s)
Visibility: 10 or more miles (16+ km)
Ceiling: at least 12,000 feet AGL
Clouds: sky clear below 12,000 feet AGL
Present Weather: no significant weather observed at this time
KPGD 261753Z 30008KT 10SM CLR 31/19 A3006 RMK AO2 SLP179 T03110189 10317 20206 56012

Conditions at: KPGD observed 26 May 2017  16:53 UTC
Temperature: 30.0°C (86°F)
Dewpoint: 18.3°C (65°F) [RH = 50%]
Pressure (altimeter): 30.07 inches Hg (1018.4 mb)
[Sea-level pressure: 1018.3 mb]
Winds: variable direction winds at 6 MPH (5 knots; 2.6 m/s)
Visibility: 10 or more miles (16+ km)
Ceiling: at least 12,000 feet AGL
Clouds: sky clear below 12,000 feet AGL
Present Weather: no significant weather observed at this time
KPGD 261653Z VRB05KT 10SM CLR 30/18 A3007 RMK AO2 SLP183 T03000183

Conditions at: KPGD observed 26 May 2017  15:53 UTC
Temperature: 28.9°C (84°F)
Dewpoint: 17.8°C (64°F) [RH = 51%]
Pressure (altimeter): 30.08 inches Hg (1018.7 mb)
[Sea-level pressure: 1018.7 mb]
Winds: from the NNW (330 degrees) at 6 MPH (5 knots; 2.6 m/s)
Visibility: 10 or more miles (16+ km)
Ceiling: at least 12,000 feet AGL
Clouds: sky clear below 12,000 feet AGL
Present Weather: no significant weather observed at this time
KPGD 261553Z 33005KT 10SM CLR 29/18 A3008 RMK AO2 SLP187 T02890178

Conditions at: KPGD observed 26 May 2017  14:53 UTC
Temperature: 27.2°C (81°F)
Dewpoint: 17.2°C (63°F) [RH = 54%]
Pressure (altimeter): 30.10 inches Hg (1019.4 mb)
[Sea-level pressure: 1019.1 mb]
Winds: variable direction winds at 6 MPH (5 knots; 2.6 m/s)
Visibility: 10 or more miles (16+ km)
Ceiling: at least 12,000 feet AGL
Clouds: sky clear below 12,000 feet AGL
Present Weather: no significant weather observed at this time
KPGD 261453Z VRB05KT 10SM CLR 27/17 A3010 RMK AO2 SLP191 T02720172 50007

Conditions at: KPGD observed 26 May 2017  13:53 UTC
Temperature: 25.6°C (78°F)
Dewpoint: 16.7°C (62°F) [RH = 58%]
Pressure (altimeter): 30.10 inches Hg (1019.4 mb)
[Sea-level pressure: 1019.4 mb]
Winds: from the NE (40 degrees) at 9 MPH (8 knots; 4.2 m/s)
Visibility: 10 or more miles (16+ km)
Ceiling: at least 12,000 feet AGL
Clouds: sky clear below 12,000 feet AGL
Present Weather: no significant weather observed at this time
KPGD 261353Z 04008KT 10SM CLR 26/17 A3010 RMK AO2 SLP194 T02560167

Conditions at: KPGD observed 26 May 2017  12:53 UTC
Temperature: 23.3°C (74°F)
Dewpoint: 16.7°C (62°F) [RH = 66%]
Pressure (altimeter): 30.09 inches Hg (1019.0 mb)
[Sea-level pressure: 1019.1 mb]
Winds: from the NE (50 degrees) at 9 MPH (8 knots; 4.2 m/s)
Visibility: 10 or more miles (16+ km)
Ceiling: at least 12,000 feet AGL
Clouds: sky clear below 12,000 feet AGL
Present Weather: no significant weather observed at this time
KPGD 261253Z 05008KT 10SM CLR 23/17 A3009 RMK AO2 SLP191 T02330167

Conditions at: KPGD observed 26 May 2017  11:53 UTC
Temperature: 20.6°C (69°F)
Dewpoint: 17.2°C (63°F) [RH = 81%]
Pressure (altimeter): 30.08 inches Hg (1018.7 mb)
[Sea-level pressure: 1018.5 mb]
Winds: from the NE (50 degrees) at 5 MPH (4 knots; 2.1 m/s)
Visibility: 10 or more miles (16+ km)
Ceiling: at least 12,000 feet AGL
Clouds: sky clear below 12,000 feet AGL
Present Weather: automated observation with no human augmentation;
there may or may not be significant weather present at this time
KPGD 261153Z AUTO 05004KT 10SM CLR 21/17 A3008 RMK AO2 SLP185 70029 T02060172 10206 20178 53022

Conditions at: KPGD observed 26 May 2017  10:53 UTC
Temperature: 17.8°C (64°F)
Dewpoint: 16.7°C (62°F) [RH = 93%]
Pressure (altimeter): 30.05 inches Hg (1017.7 mb)
[Sea-level pressure: 1017.7 mb]
Winds: from the ENE (60 degrees) at 3 MPH (3 knots; 1.6 m/s)
Visibility: 10 or more miles (16+ km)
Ceiling: at least 12,000 feet AGL
Clouds: sky clear below 12,000 feet AGL
Present Weather: automated observation with no human augmentation;
there may or may not be significant weather present at this time
KPGD 261053Z AUTO 06003KT 10SM CLR 18/17 A3005 RMK AO2 SLP177 T01780167

Conditions at: KPGD observed 26 May 2017  09:53 UTC
Temperature: 17.8°C (64°F)
Dewpoint: 16.7°C (62°F) [RH = 93%]
Pressure (altimeter): 30.03 inches Hg (1017.0 mb)
[Sea-level pressure: 1016.9 mb]
Winds: from the ENE (70 degrees) at 5 MPH (4 knots; 2.1 m/s)
Visibility: 10 or more miles (16+ km)
Ceiling: at least 12,000 feet AGL
Clouds: sky clear below 12,000 feet AGL
Present Weather: automated observation with no human augmentation;
there may or may not be significant weather present at this time
KPGD 260953Z AUTO 07004KT 10SM CLR 18/17 A3003 RMK AO2 SLP169 T01780167

Conditions at: KPGD observed 26 May 2017  08:53 UTC
Temperature: 18.3°C (65°F)
Dewpoint: 17.2°C (63°F) [RH = 93%]
Pressure (altimeter): 30.01 inches Hg (1016.3 mb)
[Sea-level pressure: 1016.3 mb]
Winds: calm
Visibility: 10 or more miles (16+ km)
Ceiling: at least 12,000 feet AGL
Clouds: sky clear below 12,000 feet AGL
Present Weather: no significant weather observed at this time
KPGD 260853Z 00000KT 10SM CLR 18/17 A3001 RMK AO2 SLP163 T01830172 53008